sensor_id;sensor_type;location;lat;lon;timestamp;temperature;humidity
11264;DHT22;5689;48.798;9.070;2022-08-19T00:00:42;21.00;99.90
11264;DHT22;5689;48.798;9.070;2022-08-19T00:03:10;21.10;99.90
11264;DHT22;5689;48.798;9.070;2022-08-19T00:05:38;21.10;99.90
11264;DHT22;5689;48.798;9.070;2022-08-19T00:08:07;21.00;99.90
11264;DHT22;5689;48.798;9.070;2022-08-19T00:10:35;21.10;99.90
11264;DHT22;5689;48.798;9.070;2022-08-19T00:13:03;20.90;99.90
11264;DHT22;5689;48.798;9.070;2022-08-19T00:15:33;20.80;99.90
11264;DHT22;5689;48.798;9.070;2022-08-19T00:18:01;20.80;99.90
11264;DHT22;5689;48.798;9.070;2022-08-19T00:20:29;20.80;99.90
11264;DHT22;5689;48.798;9.070;2022-08-19T00:22:57;21.00;99.90
11264;DHT22;5689;48.798;9.070;2022-08-19T00:25:25;20.90;99.90
11264;DHT22;5689;48.798;9.070;2022-08-19T00:27:53;20.90;99.90
11264;DHT22;5689;48.798;9.070;2022-08-19T00:30:21;20.90;99.90
11264;DHT22;5689;48.798;9.070;2022-08-19T00:32:50;20.80;99.90
11264;DHT22;5689;48.798;9.070;2022-08-19T00:35:19;20.90;99.90
11264;DHT22;5689;48.798;9.070;2022-08-19T00:37:47;20.90;99.90
11264;DHT22;5689;48.798;9.070;2022-08-19T00:40:17;21.00;99.90
11264;DHT22;5689;48.798;9.070;2022-08-19T00:42:46;21.00;99.90
11264;DHT22;5689;48.798;9.070;2022-08-19T00:45:17;20.90;99.90
11264;DHT22;5689;48.798;9.070;2022-08-19T00:47:46;20.90;99.90
11264;DHT22;5689;48.798;9.070;2022-08-19T00:50:18;20.90;99.90
11264;DHT22;5689;48.798;9.070;2022-08-19T00:52:49;20.90;99.90
11264;DHT22;5689;48.798;9.070;2022-08-19T00:55:20;21.10;99.90
11264;DHT22;5689;48.798;9.070;2022-08-19T00:57:53;21.00;99.90
11264;DHT22;5689;48.798;9.070;2022-08-19T01:00:24;21.10;99.90
11264;DHT22;5689;48.798;9.070;2022-08-19T01:02:53;21.20;99.90
11264;DHT22;5689;48.798;9.070;2022-08-19T01:05:25;21.00;99.90
11264;DHT22;5689;48.798;9.070;2022-08-19T01:07:56;21.00;99.90
11264;DHT22;5689;48.798;9.070;2022-08-19T01:10:28;21.00;99.90
11264;DHT22;5689;48.798;9.070;2022-08-19T01:13:01;21.20;99.90
11264;DHT22;5689;48.798;9.070;2022-08-19T01:15:32;21.20;99.90
11264;DHT22;5689;48.798;9.070;2022-08-19T01:18:04;21.10;99.90
11264;DHT22;5689;48.798;9.070;2022-08-19T01:20:35;21.10;99.90
11264;DHT22;5689;48.798;9.070;2022-08-19T01:23:04;20.90;99.90
11264;DHT22;5689;48.798;9.070;2022-08-19T01:25:36;20.80;99.90
11264;DHT22;5689;48.798;9.070;2022-08-19T01:28:07;20.70;99.90
11264;DHT22;5689;48.798;9.070;2022-08-19T01:30:35;20.80;99.90
11264;DHT22;5689;48.798;9.070;2022-08-19T01:33:03;20.70;99.90
11264;DHT22;5689;48.798;9.070;2022-08-19T01:35:33;20.90;99.90
11264;DHT22;5689;48.798;9.070;2022-08-19T01:38:06;21.00;99.90
11264;DHT22;5689;48.798;9.070;2022-08-19T01:40:37;21.00;99.90
11264;DHT22;5689;48.798;9.070;2022-08-19T01:43:06;20.90;99.90
11264;DHT22;5689;48.798;9.070;2022-08-19T01:45:36;20.90;99.90
11264;DHT22;5689;48.798;9.070;2022-08-19T01:48:06;20.90;99.90
11264;DHT22;5689;48.798;9.070;2022-08-19T01:50:36;21.00;99.90
11264;DHT22;5689;48.798;9.070;2022-08-19T01:53:08;20.90;99.90
11264;DHT22;5689;48.798;9.070;2022-08-19T01:55:40;20.70;99.90
11264;DHT22;5689;48.798;9.070;2022-08-19T01:58:12;20.60;99.90
11264;DHT22;5689;48.798;9.070;2022-08-19T02:00:41;20.60;99.90
11264;DHT22;5689;48.798;9.070;2022-08-19T02:03:09;20.60;99.90
11264;DHT22;5689;48.798;9.070;2022-08-19T02:05:38;20.60;99.90
11264;DHT22;5689;48.798;9.070;2022-08-19T02:08:08;20.70;99.90
11264;DHT22;5689;48.798;9.070;2022-08-19T02:10:39;20.70;99.90
11264;DHT22;5689;48.798;9.070;2022-08-19T02:13:09;20.70;99.90
11264;DHT22;5689;48.798;9.070;2022-08-19T02:15:37;20.70;99.90
11264;DHT22;5689;48.798;9.070;2022-08-19T02:18:05;20.60;99.90
11264;DHT22;5689;48.798;9.070;2022-08-19T02:20:35;20.50;99.90
11264;DHT22;5689;48.798;9.070;2022-08-19T02:23:05;20.40;99.90
11264;DHT22;5689;48.798;9.070;2022-08-19T02:25:35;20.30;99.90
11264;DHT22;5689;48.798;9.070;2022-08-19T02:28:04;20.30;99.90
11264;DHT22;5689;48.798;9.070;2022-08-19T02:30:32;20.40;99.90
11264;DHT22;5689;48.798;9.070;2022-08-19T02:33:00;20.30;99.90
11264;DHT22;5689;48.798;9.070;2022-08-19T02:35:28;20.40;99.90
11264;DHT22;5689;48.798;9.070;2022-08-19T02:37:56;20.40;99.90
11264;DHT22;5689;48.798;9.070;2022-08-19T02:40:49;20.30;99.90
11264;DHT22;5689;48.798;9.070;2022-08-19T02:43:18;20.30;99.90
11264;DHT22;5689;48.798;9.070;2022-08-19T02:45:48;20.30;99.90
11264;DHT22;5689;48.798;9.070;2022-08-19T02:48:18;20.30;99.90
11264;DHT22;5689;48.798;9.070;2022-08-19T02:50:48;20.20;99.90
11264;DHT22;5689;48.798;9.070;2022-08-19T02:53:22;20.20;99.90
11264;DHT22;5689;48.798;9.070;2022-08-19T02:55:52;20.10;99.90
11264;DHT22;5689;48.798;9.070;2022-08-19T02:58:21;20.00;99.90
11264;DHT22;5689;48.798;9.070;2022-08-19T03:00:51;20.00;99.90
11264;DHT22;5689;48.798;9.070;2022-08-19T03:03:19;20.00;99.90
11264;DHT22;5689;48.798;9.070;2022-08-19T03:05:48;19.90;99.90
11264;DHT22;5689;48.798;9.070;2022-08-19T03:08:16;19.90;99.90
11264;DHT22;5689;48.798;9.070;2022-08-19T03:10:45;20.00;99.90
11264;DHT22;5689;48.798;9.070;2022-08-19T03:13:17;20.00;99.90
11264;DHT22;5689;48.798;9.070;2022-08-19T03:15:47;20.00;99.90
11264;DHT22;5689;48.798;9.070;2022-08-19T03:18:15;19.90;99.90
11264;DHT22;5689;48.798;9.070;2022-08-19T03:20:45;19.90;99.90
11264;DHT22;5689;48.798;9.070;2022-08-19T03:23:14;19.90;99.90
11264;DHT22;5689;48.798;9.070;2022-08-19T03:25:46;20.10;99.90
11264;DHT22;5689;48.798;9.070;2022-08-19T03:28:16;20.00;99.90
11264;DHT22;5689;48.798;9.070;2022-08-19T03:30:55;20.00;99.90
11264;DHT22;5689;48.798;9.070;2022-08-19T03:33:25;20.10;99.90
11264;DHT22;5689;48.798;9.070;2022-08-19T03:36:05;20.00;99.90
11264;DHT22;5689;48.798;9.070;2022-08-19T03:38:34;19.90;99.90
11264;DHT22;5689;48.798;9.070;2022-08-19T03:41:04;19.90;99.90
11264;DHT22;5689;48.798;9.070;2022-08-19T03:43:35;19.80;99.90
11264;DHT22;5689;48.798;9.070;2022-08-19T03:46:06;19.70;99.90
11264;DHT22;5689;48.798;9.070;2022-08-19T03:48:35;19.70;99.90
11264;DHT22;5689;48.798;9.070;2022-08-19T03:51:04;19.70;99.90
11264;DHT22;5689;48.798;9.070;2022-08-19T03:53:33;19.60;99.90
11264;DHT22;5689;48.798;9.070;2022-08-19T03:56:01;19.50;99.90
11264;DHT22;5689;48.798;9.070;2022-08-19T03:58:30;19.70;99.90
11264;DHT22;5689;48.798;9.070;2022-08-19T04:00:59;19.60;99.90
11264;DHT22;5689;48.798;9.070;2022-08-19T04:03:28;19.60;99.90
11264;DHT22;5689;48.798;9.070;2022-08-19T04:05:55;19.50;99.90
11264;DHT22;5689;48.798;9.070;2022-08-19T04:08:24;19.50;99.90
11264;DHT22;5689;48.798;9.070;2022-08-19T04:10:52;19.50;99.90
11264;DHT22;5689;48.798;9.070;2022-08-19T04:13:20;19.50;99.90
11264;DHT22;5689;48.798;9.070;2022-08-19T04:15:48;19.50;99.90
11264;DHT22;5689;48.798;9.070;2022-08-19T04:18:17;19.60;99.90
11264;DHT22;5689;48.798;9.070;2022-08-19T04:20:46;19.60;99.90
11264;DHT22;5689;48.798;9.070;2022-08-19T04:23:15;19.50;99.90
11264;DHT22;5689;48.798;9.070;2022-08-19T04:25:44;19.50;99.90
11264;DHT22;5689;48.798;9.070;2022-08-19T04:28:12;19.50;99.90
11264;DHT22;5689;48.798;9.070;2022-08-19T04:30:42;19.50;99.90
11264;DHT22;5689;48.798;9.070;2022-08-19T04:33:12;19.70;99.90
11264;DHT22;5689;48.798;9.070;2022-08-19T04:35:43;19.50;99.90
11264;DHT22;5689;48.798;9.070;2022-08-19T04:38:14;19.60;99.90
11264;DHT22;5689;48.798;9.070;2022-08-19T04:40:44;19.60;99.90
11264;DHT22;5689;48.798;9.070;2022-08-19T04:43:31;19.50;99.90
11264;DHT22;5689;48.798;9.070;2022-08-19T04:46:05;19.50;99.90
11264;DHT22;5689;48.798;9.070;2022-08-19T04:48:33;19.50;99.90
11264;DHT22;5689;48.798;9.070;2022-08-19T04:51:06;19.50;99.90
11264;DHT22;5689;48.798;9.070;2022-08-19T04:53:37;19.60;99.90
11264;DHT22;5689;48.798;9.070;2022-08-19T04:56:08;19.50;99.90
11264;DHT22;5689;48.798;9.070;2022-08-19T04:58:37;19.50;99.90
11264;DHT22;5689;48.798;9.070;2022-08-19T05:01:05;19.60;99.90
11264;DHT22;5689;48.798;9.070;2022-08-19T05:03:33;19.60;99.90
11264;DHT22;5689;48.798;9.070;2022-08-19T05:06:06;19.60;99.90
11264;DHT22;5689;48.798;9.070;2022-08-19T05:08:36;19.60;99.90
11264;DHT22;5689;48.798;9.070;2022-08-19T05:11:10;19.60;99.90
11264;DHT22;5689;48.798;9.070;2022-08-19T05:13:38;19.50;99.90
11264;DHT22;5689;48.798;9.070;2022-08-19T05:16:06;19.60;99.90
11264;DHT22;5689;48.798;9.070;2022-08-19T05:18:34;19.70;99.90
11264;DHT22;5689;48.798;9.070;2022-08-19T05:21:21;19.70;99.90
11264;DHT22;5689;48.798;9.070;2022-08-19T05:24:07;19.70;99.90
11264;DHT22;5689;48.798;9.070;2022-08-19T05:26:36;19.80;99.90
11264;DHT22;5689;48.798;9.070;2022-08-19T05:29:04;19.80;99.90
11264;DHT22;5689;48.798;9.070;2022-08-19T05:31:35;19.80;99.90
11264;DHT22;5689;48.798;9.070;2022-08-19T05:34:05;19.70;99.90
11264;DHT22;5689;48.798;9.070;2022-08-19T05:36:36;19.90;99.90
11264;DHT22;5689;48.798;9.070;2022-08-19T05:39:08;19.90;99.90
11264;DHT22;5689;48.798;9.070;2022-08-19T05:41:41;19.80;99.90
11264;DHT22;5689;48.798;9.070;2022-08-19T05:44:09;19.80;99.90
11264;DHT22;5689;48.798;9.070;2022-08-19T05:46:38;19.80;99.90
11264;DHT22;5689;48.798;9.070;2022-08-19T05:49:07;19.80;99.90
11264;DHT22;5689;48.798;9.070;2022-08-19T05:51:36;19.90;99.90
11264;DHT22;5689;48.798;9.070;2022-08-19T05:54:06;19.90;99.90
11264;DHT22;5689;48.798;9.070;2022-08-19T05:56:35;19.90;99.90
11264;DHT22;5689;48.798;9.070;2022-08-19T05:59:05;19.80;99.90
11264;DHT22;5689;48.798;9.070;2022-08-19T06:01:36;19.80;99.90
11264;DHT22;5689;48.798;9.070;2022-08-19T06:04:05;19.90;99.90
11264;DHT22;5689;48.798;9.070;2022-08-19T06:06:33;19.80;99.90
11264;DHT22;5689;48.798;9.070;2022-08-19T06:09:04;19.90;99.90
11264;DHT22;5689;48.798;9.070;2022-08-19T06:11:34;19.80;99.90
11264;DHT22;5689;48.798;9.070;2022-08-19T06:14:05;19.80;99.90
11264;DHT22;5689;48.798;9.070;2022-08-19T06:16:34;19.70;99.90
11264;DHT22;5689;48.798;9.070;2022-08-19T06:19:04;19.80;99.90
11264;DHT22;5689;48.798;9.070;2022-08-19T06:21:35;19.70;99.90
11264;DHT22;5689;48.798;9.070;2022-08-19T06:24:07;19.80;99.90
11264;DHT22;5689;48.798;9.070;2022-08-19T06:26:37;19.90;99.90
11264;DHT22;5689;48.798;9.070;2022-08-19T06:29:08;19.80;99.90
11264;DHT22;5689;48.798;9.070;2022-08-19T06:31:36;19.80;99.90
11264;DHT22;5689;48.798;9.070;2022-08-19T06:34:05;19.70;99.90
11264;DHT22;5689;48.798;9.070;2022-08-19T06:36:36;19.70;99.90
11264;DHT22;5689;48.798;9.070;2022-08-19T06:39:07;19.70;99.90
11264;DHT22;5689;48.798;9.070;2022-08-19T06:41:37;19.80;99.90
11264;DHT22;5689;48.798;9.070;2022-08-19T06:44:11;19.70;99.90
11264;DHT22;5689;48.798;9.070;2022-08-19T06:46:40;19.60;99.90
11264;DHT22;5689;48.798;9.070;2022-08-19T06:49:09;19.70;99.90
11264;DHT22;5689;48.798;9.070;2022-08-19T06:51:41;19.80;99.90
11264;DHT22;5689;48.798;9.070;2022-08-19T06:54:11;19.80;99.90
11264;DHT22;5689;48.798;9.070;2022-08-19T06:56:39;19.80;99.90
11264;DHT22;5689;48.798;9.070;2022-08-19T06:59:09;20.00;99.90
11264;DHT22;5689;48.798;9.070;2022-08-19T07:01:39;20.00;99.90
11264;DHT22;5689;48.798;9.070;2022-08-19T07:04:08;20.00;99.90
11264;DHT22;5689;48.798;9.070;2022-08-19T07:06:37;20.10;99.90
11264;DHT22;5689;48.798;9.070;2022-08-19T07:09:08;19.90;99.90
11264;DHT22;5689;48.798;9.070;2022-08-19T07:11:38;19.90;99.90
11264;DHT22;5689;48.798;9.070;2022-08-19T07:14:06;19.80;99.90
11264;DHT22;5689;48.798;9.070;2022-08-19T07:16:34;19.80;99.90
11264;DHT22;5689;48.798;9.070;2022-08-19T07:19:03;19.90;99.90
11264;DHT22;5689;48.798;9.070;2022-08-19T07:21:31;19.90;99.90
11264;DHT22;5689;48.798;9.070;2022-08-19T07:23:59;20.00;99.90
11264;DHT22;5689;48.798;9.070;2022-08-19T07:26:29;20.00;99.90
11264;DHT22;5689;48.798;9.070;2022-08-19T07:28:58;20.00;99.90
11264;DHT22;5689;48.798;9.070;2022-08-19T07:31:28;19.90;99.90
11264;DHT22;5689;48.798;9.070;2022-08-19T07:33:56;20.00;99.90
11264;DHT22;5689;48.798;9.070;2022-08-19T07:36:27;20.10;99.90
11264;DHT22;5689;48.798;9.070;2022-08-19T07:39:00;20.10;99.90
11264;DHT22;5689;48.798;9.070;2022-08-19T07:41:29;20.20;99.90
11264;DHT22;5689;48.798;9.070;2022-08-19T07:44:00;20.20;99.90
11264;DHT22;5689;48.798;9.070;2022-08-19T07:46:30;20.30;99.90
11264;DHT22;5689;48.798;9.070;2022-08-19T07:48:58;20.20;99.90
11264;DHT22;5689;48.798;9.070;2022-08-19T07:51:28;20.10;99.90
11264;DHT22;5689;48.798;9.070;2022-08-19T07:53:56;20.10;99.90
11264;DHT22;5689;48.798;9.070;2022-08-19T07:56:24;20.10;99.90
11264;DHT22;5689;48.798;9.070;2022-08-19T07:58:52;20.00;99.90
11264;DHT22;5689;48.798;9.070;2022-08-19T08:01:27;20.20;99.90
11264;DHT22;5689;48.798;9.070;2022-08-19T08:03:57;20.20;99.90
11264;DHT22;5689;48.798;9.070;2022-08-19T08:06:43;20.20;99.90
11264;DHT22;5689;48.798;9.070;2022-08-19T08:09:31;20.20;99.90
11264;DHT22;5689;48.798;9.070;2022-08-19T08:12:03;20.10;99.90
11264;DHT22;5689;48.798;9.070;2022-08-19T08:14:46;20.20;99.90
11264;DHT22;5689;48.798;9.070;2022-08-19T08:17:18;20.00;99.90
11264;DHT22;5689;48.798;9.070;2022-08-19T08:19:48;20.10;99.90
11264;DHT22;5689;48.798;9.070;2022-08-19T08:22:19;20.20;99.90
11264;DHT22;5689;48.798;9.070;2022-08-19T08:25:08;20.30;99.90
11264;DHT22;5689;48.798;9.070;2022-08-19T08:27:36;20.10;99.90
11264;DHT22;5689;48.798;9.070;2022-08-19T08:30:06;20.10;99.90
11264;DHT22;5689;48.798;9.070;2022-08-19T08:32:39;20.00;99.90
11264;DHT22;5689;48.798;9.070;2022-08-19T08:35:10;20.00;99.90
11264;DHT22;5689;48.798;9.070;2022-08-19T08:37:38;20.00;99.90
11264;DHT22;5689;48.798;9.070;2022-08-19T08:42:57;20.10;99.90
11264;DHT22;5689;48.798;9.070;2022-08-19T08:45:33;20.20;99.90
11264;DHT22;5689;48.798;9.070;2022-08-19T08:48:10;20.30;99.90
11264;DHT22;5689;48.798;9.070;2022-08-19T08:50:43;20.40;99.90
11264;DHT22;5689;48.798;9.070;2022-08-19T08:53:16;20.40;99.90
11264;DHT22;5689;48.798;9.070;2022-08-19T08:55:46;20.50;99.90
11264;DHT22;5689;48.798;9.070;2022-08-19T08:58:19;20.50;99.90
11264;DHT22;5689;48.798;9.070;2022-08-19T09:00:49;20.50;99.90
11264;DHT22;5689;48.798;9.070;2022-08-19T09:03:20;20.60;99.90
11264;DHT22;5689;48.798;9.070;2022-08-19T09:05:56;20.60;99.90
11264;DHT22;5689;48.798;9.070;2022-08-19T09:08:38;20.60;99.90
11264;DHT22;5689;48.798;9.070;2022-08-19T09:11:09;20.70;99.90
11264;DHT22;5689;48.798;9.070;2022-08-19T09:13:44;20.60;99.90
11264;DHT22;5689;48.798;9.070;2022-08-19T09:16:17;20.70;99.90
11264;DHT22;5689;48.798;9.070;2022-08-19T09:18:51;20.70;99.90
11264;DHT22;5689;48.798;9.070;2022-08-19T09:21:20;20.90;99.90
11264;DHT22;5689;48.798;9.070;2022-08-19T09:23:51;21.00;99.90
11264;DHT22;5689;48.798;9.070;2022-08-19T09:26:22;21.20;99.90
11264;DHT22;5689;48.798;9.070;2022-08-19T09:28:52;21.30;99.90
11264;DHT22;5689;48.798;9.070;2022-08-19T09:31:23;21.30;99.90
11264;DHT22;5689;48.798;9.070;2022-08-19T09:33:53;21.30;99.90
11264;DHT22;5689;48.798;9.070;2022-08-19T09:36:25;21.30;99.90
11264;DHT22;5689;48.798;9.070;2022-08-19T09:38:54;21.40;99.90
11264;DHT22;5689;48.798;9.070;2022-08-19T09:41:24;21.60;99.90
11264;DHT22;5689;48.798;9.070;2022-08-19T09:43:55;21.70;99.90
11264;DHT22;5689;48.798;9.070;2022-08-19T09:46:26;21.80;99.90
11264;DHT22;5689;48.798;9.070;2022-08-19T09:48:57;21.70;99.90
11264;DHT22;5689;48.798;9.070;2022-08-19T09:51:27;21.70;99.90
11264;DHT22;5689;48.798;9.070;2022-08-19T09:54:00;21.60;99.90
11264;DHT22;5689;48.798;9.070;2022-08-19T09:56:29;21.60;99.90
11264;DHT22;5689;48.798;9.070;2022-08-19T09:58:58;21.60;99.90
11264;DHT22;5689;48.798;9.070;2022-08-19T10:01:28;21.50;99.90
11264;DHT22;5689;48.798;9.070;2022-08-19T10:03:59;21.50;99.90
11264;DHT22;5689;48.798;9.070;2022-08-19T10:06:29;21.50;99.90
11264;DHT22;5689;48.798;9.070;2022-08-19T10:08:59;21.40;99.90
11264;DHT22;5689;48.798;9.070;2022-08-19T10:11:27;21.40;99.90
11264;DHT22;5689;48.798;9.070;2022-08-19T10:13:55;21.40;99.90
11264;DHT22;5689;48.798;9.070;2022-08-19T10:16:23;21.40;99.90
11264;DHT22;5689;48.798;9.070;2022-08-19T10:18:52;21.30;99.90
11264;DHT22;5689;48.798;9.070;2022-08-19T10:21:25;21.40;99.90
11264;DHT22;5689;48.798;9.070;2022-08-19T10:23:59;21.50;99.90
11264;DHT22;5689;48.798;9.070;2022-08-19T10:26:31;21.50;99.90
11264;DHT22;5689;48.798;9.070;2022-08-19T10:28:59;21.50;99.90
11264;DHT22;5689;48.798;9.070;2022-08-19T10:31:29;21.60;99.90
11264;DHT22;5689;48.798;9.070;2022-08-19T10:33:58;21.50;99.90
11264;DHT22;5689;48.798;9.070;2022-08-19T10:36:30;21.60;99.90
11264;DHT22;5689;48.798;9.070;2022-08-19T10:39:01;21.60;99.90
11264;DHT22;5689;48.798;9.070;2022-08-19T10:41:31;21.60;99.90
11264;DHT22;5689;48.798;9.070;2022-08-19T10:44:02;21.60;99.90
11264;DHT22;5689;48.798;9.070;2022-08-19T10:46:32;21.80;99.90
11264;DHT22;5689;48.798;9.070;2022-08-19T10:49:02;21.90;99.90
11264;DHT22;5689;48.798;9.070;2022-08-19T10:51:32;22.10;99.90
11264;DHT22;5689;48.798;9.070;2022-08-19T10:54:18;22.40;99.90
11264;DHT22;5689;48.798;9.070;2022-08-19T10:56:46;22.60;99.90
11264;DHT22;5689;48.798;9.070;2022-08-19T10:59:21;22.90;99.90
11264;DHT22;5689;48.798;9.070;2022-08-19T11:01:50;23.10;99.90
11264;DHT22;5689;48.798;9.070;2022-08-19T11:04:19;23.10;99.90
11264;DHT22;5689;48.798;9.070;2022-08-19T11:06:50;23.20;99.90
11264;DHT22;5689;48.798;9.070;2022-08-19T11:09:20;23.20;99.90
11264;DHT22;5689;48.798;9.070;2022-08-19T11:11:53;23.10;99.90
11264;DHT22;5689;48.798;9.070;2022-08-19T11:14:24;23.10;99.90
11264;DHT22;5689;48.798;9.070;2022-08-19T11:16:52;23.10;99.90
11264;DHT22;5689;48.798;9.070;2022-08-19T11:19:22;23.20;99.90
11264;DHT22;5689;48.798;9.070;2022-08-19T11:21:52;23.30;99.90
11264;DHT22;5689;48.798;9.070;2022-08-19T11:24:24;23.50;99.90
11264;DHT22;5689;48.798;9.070;2022-08-19T11:26:54;23.30;99.90
11264;DHT22;5689;48.798;9.070;2022-08-19T11:29:25;23.10;99.90
11264;DHT22;5689;48.798;9.070;2022-08-19T11:31:54;23.20;99.90
11264;DHT22;5689;48.798;9.070;2022-08-19T11:34:25;23.50;99.90
11264;DHT22;5689;48.798;9.070;2022-08-19T11:36:56;23.60;99.90
11264;DHT22;5689;48.798;9.070;2022-08-19T11:39:27;24.00;99.90
11264;DHT22;5689;48.798;9.070;2022-08-19T11:41:57;23.90;99.90
11264;DHT22;5689;48.798;9.070;2022-08-19T11:44:25;23.70;99.90
11264;DHT22;5689;48.798;9.070;2022-08-19T11:46:53;23.90;99.90
11264;DHT22;5689;48.798;9.070;2022-08-19T11:49:21;23.90;99.90
11264;DHT22;5689;48.798;9.070;2022-08-19T11:51:49;23.90;99.90
11264;DHT22;5689;48.798;9.070;2022-08-19T11:54:19;23.90;99.90
11264;DHT22;5689;48.798;9.070;2022-08-19T11:56:47;24.20;99.90
11264;DHT22;5689;48.798;9.070;2022-08-19T11:59:15;24.10;99.90
11264;DHT22;5689;48.798;9.070;2022-08-19T12:01:43;24.00;99.90
11264;DHT22;5689;48.798;9.070;2022-08-19T12:04:12;24.20;99.90
11264;DHT22;5689;48.798;9.070;2022-08-19T12:06:40;24.40;99.90
11264;DHT22;5689;48.798;9.070;2022-08-19T12:09:09;24.20;99.90
11264;DHT22;5689;48.798;9.070;2022-08-19T12:11:39;24.30;99.90
11264;DHT22;5689;48.798;9.070;2022-08-19T12:14:10;24.10;99.90
11264;DHT22;5689;48.798;9.070;2022-08-19T12:16:40;23.70;99.90
11264;DHT22;5689;48.798;9.070;2022-08-19T12:19:08;23.80;99.90
11264;DHT22;5689;48.798;9.070;2022-08-19T12:21:36;24.00;99.90
11264;DHT22;5689;48.798;9.070;2022-08-19T12:24:06;24.20;99.90
11264;DHT22;5689;48.798;9.070;2022-08-19T12:26:35;24.50;99.90
11264;DHT22;5689;48.798;9.070;2022-08-19T12:29:05;24.50;99.90
11264;DHT22;5689;48.798;9.070;2022-08-19T12:31:35;24.50;99.90
11264;DHT22;5689;48.798;9.070;2022-08-19T12:34:03;24.70;99.90
11264;DHT22;5689;48.798;9.070;2022-08-19T12:36:31;24.30;99.90
11264;DHT22;5689;48.798;9.070;2022-08-19T12:38:59;23.90;99.90
11264;DHT22;5689;48.798;9.070;2022-08-19T12:41:27;23.70;99.90
11264;DHT22;5689;48.798;9.070;2022-08-19T12:43:55;23.70;99.90
11264;DHT22;5689;48.798;9.070;2022-08-19T12:46:24;23.90;99.90
11264;DHT22;5689;48.798;9.070;2022-08-19T12:48:52;24.00;99.90
11264;DHT22;5689;48.798;9.070;2022-08-19T12:51:21;24.20;99.90
11264;DHT22;5689;48.798;9.070;2022-08-19T12:53:49;24.20;99.90
11264;DHT22;5689;48.798;9.070;2022-08-19T12:56:17;24.20;99.90
11264;DHT22;5689;48.798;9.070;2022-08-19T12:58:48;24.10;99.90
11264;DHT22;5689;48.798;9.070;2022-08-19T13:01:18;24.20;99.90
11264;DHT22;5689;48.798;9.070;2022-08-19T13:03:47;24.50;99.90
11264;DHT22;5689;48.798;9.070;2022-08-19T13:06:15;24.70;99.90
11264;DHT22;5689;48.798;9.070;2022-08-19T13:08:44;25.10;99.90
11264;DHT22;5689;48.798;9.070;2022-08-19T13:11:14;25.20;99.90
11264;DHT22;5689;48.798;9.070;2022-08-19T13:13:45;25.30;99.90
11264;DHT22;5689;48.798;9.070;2022-08-19T13:16:14;25.10;99.90
11264;DHT22;5689;48.798;9.070;2022-08-19T13:18:45;24.90;99.90
11264;DHT22;5689;48.798;9.070;2022-08-19T13:21:15;24.80;99.90
11264;DHT22;5689;48.798;9.070;2022-08-19T13:23:43;24.70;99.90
11264;DHT22;5689;48.798;9.070;2022-08-19T13:26:12;24.70;99.90
11264;DHT22;5689;48.798;9.070;2022-08-19T13:28:41;24.70;99.90
11264;DHT22;5689;48.798;9.070;2022-08-19T13:31:29;24.70;99.90
11264;DHT22;5689;48.798;9.070;2022-08-19T13:34:16;24.70;99.90
11264;DHT22;5689;48.798;9.070;2022-08-19T13:36:46;24.80;99.90
11264;DHT22;5689;48.798;9.070;2022-08-19T13:39:14;25.10;99.90
11264;DHT22;5689;48.798;9.070;2022-08-19T13:41:44;25.50;99.60
11264;DHT22;5689;48.798;9.070;2022-08-19T13:44:15;25.20;99.70
11264;DHT22;5689;48.798;9.070;2022-08-19T13:46:45;25.00;99.90
11264;DHT22;5689;48.798;9.070;2022-08-19T13:49:13;25.00;99.50
11264;DHT22;5689;48.798;9.070;2022-08-19T13:51:42;25.00;99.90
11264;DHT22;5689;48.798;9.070;2022-08-19T13:54:12;25.00;99.50
11264;DHT22;5689;48.798;9.070;2022-08-19T13:56:41;25.10;98.30
11264;DHT22;5689;48.798;9.070;2022-08-19T13:59:09;25.20;98.40
11264;DHT22;5689;48.798;9.070;2022-08-19T14:01:38;25.20;99.70
11264;DHT22;5689;48.798;9.070;2022-08-19T14:04:07;25.40;97.30
11264;DHT22;5689;48.798;9.070;2022-08-19T14:06:35;25.50;96.90
11264;DHT22;5689;48.798;9.070;2022-08-19T14:09:04;25.20;96.70
11264;DHT22;5689;48.798;9.070;2022-08-19T14:11:33;25.20;99.90
11264;DHT22;5689;48.798;9.070;2022-08-19T14:14:01;24.40;99.90
11264;DHT22;5689;48.798;9.070;2022-08-19T14:16:29;24.40;99.90
11264;DHT22;5689;48.798;9.070;2022-08-19T14:18:58;24.80;99.90
11264;DHT22;5689;48.798;9.070;2022-08-19T14:21:26;25.60;99.90
11264;DHT22;5689;48.798;9.070;2022-08-19T14:23:54;26.00;99.90
11264;DHT22;5689;48.798;9.070;2022-08-19T14:26:22;26.50;99.90
11264;DHT22;5689;48.798;9.070;2022-08-19T14:28:51;27.20;99.90
11264;DHT22;5689;48.798;9.070;2022-08-19T14:31:20;27.20;99.90
11264;DHT22;5689;48.798;9.070;2022-08-19T14:33:52;27.00;99.30
11264;DHT22;5689;48.798;9.070;2022-08-19T14:36:20;27.10;99.10
11264;DHT22;5689;48.798;9.070;2022-08-19T14:38:48;27.00;99.90
11264;DHT22;5689;48.798;9.070;2022-08-19T14:41:19;28.00;96.60
11264;DHT22;5689;48.798;9.070;2022-08-19T14:43:48;28.40;95.50
11264;DHT22;5689;48.798;9.070;2022-08-19T14:46:20;27.10;96.30
11264;DHT22;5689;48.798;9.070;2022-08-19T14:48:49;26.80;97.00
11264;DHT22;5689;48.798;9.070;2022-08-19T14:51:17;27.10;96.20
11264;DHT22;5689;48.798;9.070;2022-08-19T14:53:46;26.50;97.90
11264;DHT22;5689;48.798;9.070;2022-08-19T14:56:19;26.40;97.70
11264;DHT22;5689;48.798;9.070;2022-08-19T14:58:47;26.20;94.40
11264;DHT22;5689;48.798;9.070;2022-08-19T15:01:21;26.00;93.30
11264;DHT22;5689;48.798;9.070;2022-08-19T15:03:50;26.00;93.00
11264;DHT22;5689;48.798;9.070;2022-08-19T15:06:19;26.30;92.70
11264;DHT22;5689;48.798;9.070;2022-08-19T15:08:49;26.60;93.00
11264;DHT22;5689;48.798;9.070;2022-08-19T15:11:21;26.80;93.20
11264;DHT22;5689;48.798;9.070;2022-08-19T15:13:50;27.70;91.40
11264;DHT22;5689;48.798;9.070;2022-08-19T15:16:20;28.10;90.90
11264;DHT22;5689;48.798;9.070;2022-08-19T15:18:52;28.30;90.10
11264;DHT22;5689;48.798;9.070;2022-08-19T15:21:21;29.20;87.90
11264;DHT22;5689;48.798;9.070;2022-08-19T15:23:50;29.20;86.40
11264;DHT22;5689;48.798;9.070;2022-08-19T15:26:19;28.80;86.60
11264;DHT22;5689;48.798;9.070;2022-08-19T15:28:47;29.60;83.40
11264;DHT22;5689;48.798;9.070;2022-08-19T15:31:19;28.90;85.00
11264;DHT22;5689;48.798;9.070;2022-08-19T15:33:48;29.50;84.90
11264;DHT22;5689;48.798;9.070;2022-08-19T15:36:16;29.70;83.40
11264;DHT22;5689;48.798;9.070;2022-08-19T15:38:44;28.80;83.20
11264;DHT22;5689;48.798;9.070;2022-08-19T15:41:17;28.70;82.00
11264;DHT22;5689;48.798;9.070;2022-08-19T15:43:53;28.30;83.00
11264;DHT22;5689;48.798;9.070;2022-08-19T15:46:25;28.70;79.00
11264;DHT22;5689;48.798;9.070;2022-08-19T15:48:54;28.50;78.50
11264;DHT22;5689;48.798;9.070;2022-08-19T15:51:24;28.30;78.10
11264;DHT22;5689;48.798;9.070;2022-08-19T15:53:52;28.40;78.50
11264;DHT22;5689;48.798;9.070;2022-08-19T15:56:21;27.80;78.90
11264;DHT22;5689;48.798;9.070;2022-08-19T15:58:51;27.60;80.30
11264;DHT22;5689;48.798;9.070;2022-08-19T16:01:38;27.80;80.60
11264;DHT22;5689;48.798;9.070;2022-08-19T16:04:23;28.30;78.80
11264;DHT22;5689;48.798;9.070;2022-08-19T16:07:23;28.80;76.40